Time;durP1;ratioP1;P1;durP2;ratioP2;P2;SDS_P1;SDS_P2;PMS_P1;PMS_P2;Temp;Humidity;BMP_temperature;BMP_pressure;BME280_temperature;BME280_humidity;BME280_pressure;Samples;Min_cycle;Max_cycle;Signal;HPM_P1;HPM_P2
2023/08/31 00:02:21;;;;;;;5.70;1.40;;;;;;;15.30;100.00;98816.77;109102;1257;60040;-65
2023/08/31 00:05:08;;;;;;;5.30;1.30;;;;;;;15.27;100.00;98816.75;109126;1257;60362;-65
2023/08/31 00:07:54;;;;;;;5.90;1.50;;;;;;;15.27;100.00;98819.99;109102;1257;73776;-64
2023/08/31 00:10:40;;;;;;;5.50;1.40;;;;;;;15.24;100.00;98814.60;109122;1257;67268;-65
2023/08/31 00:13:27;;;;;;;5.40;1.30;;;;;;;15.21;100.00;98815.83;109060;1257;72596;-65
2023/08/31 00:16:16;;;;;;;5.50;1.40;;;;;;;15.19;100.00;98818.59;109059;1258;59418;-64
2023/08/31 00:19:02;;;;;;;5.60;1.60;;;;;;;15.16;100.00;98819.27;109065;1257;60315;-64
2023/08/31 00:21:48;;;;;;;5.00;1.40;;;;;;;15.13;100.00;98811.81;109096;1257;74566;-66
2023/08/31 00:24:36;;;;;;;4.60;1.40;;;;;;;15.15;100.00;98817.28;109087;1257;67957;-63
2023/08/31 00:27:23;;;;;;;5.20;1.50;;;;;;;15.14;100.00;98817.92;109093;1257;72624;-64
2023/08/31 00:30:14;;;;;;;6.10;1.40;;;;;;;15.14;100.00;98816.83;109084;1257;59568;-64
2023/08/31 00:33:00;;;;;;;5.40;1.40;;;;;;;15.13;100.00;98816.02;109054;1257;60312;-65
2023/08/31 00:35:47;;;;;;;6.40;1.50;;;;;;;15.11;100.00;98815.95;109031;1259;74724;-64
2023/08/31 00:38:33;;;;;;;5.20;1.60;;;;;;;15.10;100.00;98818.58;109092;1257;68916;-64
2023/08/31 00:41:20;;;;;;;4.80;1.40;;;;;;;15.09;100.00;98819.34;109063;1257;71517;-65
2023/08/31 00:44:06;;;;;;;5.90;1.50;;;;;;;15.10;100.00;98825.81;109061;1258;60448;-63
2023/08/31 00:46:54;;;;;;;6.10;1.60;;;;;;;15.11;100.00;98826.85;109120;1257;60465;-64
2023/08/31 00:49:41;;;;;;;5.60;1.70;;;;;;;15.12;100.00;98826.15;109066;1257;74851;-65
2023/08/31 00:52:27;;;;;;;5.80;1.50;;;;;;;15.13;100.00;98824.67;109055;1257;68706;-64
2023/08/31 00:55:14;;;;;;;6.20;1.60;;;;;;;15.08;100.00;98818.32;109071;1257;73094;-64
2023/08/31 00:58:00;;;;;;;5.60;1.60;;;;;;;15.09;100.00;98822.95;108973;1257;60615;-63
2023/08/31 01:00:59;;;;;;;6.00;1.70;;;;;;;15.08;100.00;98822.97;109120;1257;58432;-64
2023/08/31 01:04:27;;;;;;;5.50;1.80;;;;;;;15.03;100.00;98820.27;109034;1259;74790;-64
2023/08/31 01:07:36;;;;;;;7.00;1.90;;;;;;;15.04;100.00;98824.31;109033;1258;69198;-64
2023/08/31 01:10:35;;;;;;;6.00;1.90;;;;;;;15.04;100.00;98826.38;108970;1260;72589;-65
2023/08/31 01:13:25;;;;;;;5.50;1.60;;;;;;;15.06;100.00;98824.35;108989;1257;60582;-65
2023/08/31 01:16:13;;;;;;;5.50;1.70;;;;;;;15.05;100.00;98823.45;109162;1257;59497;-65
2023/08/31 01:19:05;;;;;;;5.10;1.80;;;;;;;15.03;100.00;98822.92;109007;1260;74913;-64
2023/08/31 01:21:57;;;;;;;5.40;1.90;;;;;;;15.02;100.00;98821.67;109030;1260;68710;-64
2023/08/31 01:24:44;;;;;;;6.70;1.80;;;;;;;15.00;100.00;98826.13;109037;1261;73740;-66
2023/08/31 01:27:33;;;;;;;5.10;1.60;;;;;;;14.99;100.00;98832.33;109014;1260;58186;-64
2023/08/31 01:30:19;;;;;;;5.30;1.70;;;;;;;14.98;100.00;98833.70;109046;1259;58801;-64
2023/08/31 01:33:06;;;;;;;5.50;1.60;;;;;;;15.00;100.00;98832.63;108999;1259;74956;-65
2023/08/31 01:35:56;;;;;;;6.80;1.90;;;;;;;15.01;100.00;98830.21;109027;1260;66992;-64
2023/08/31 01:38:47;;;;;;;6.10;1.90;;;;;;;15.01;100.00;98827.47;109049;1259;73435;-64
2023/08/31 01:41:36;;;;;;;6.20;1.70;;;;;;;15.02;100.00;98830.94;108986;1259;60473;-63
2023/08/31 01:44:24;;;;;;;5.20;1.70;;;;;;;15.03;100.00;98833.10;109046;1260;58094;-64
2023/08/31 01:47:14;;;;;;;6.10;2.00;;;;;;;15.07;100.00;98832.11;109027;1258;72365;-64
2023/08/31 01:50:00;;;;;;;6.20;1.90;;;;;;;15.12;100.00;98827.13;109031;1260;67816;-64
2023/08/31 01:52:46;;;;;;;7.20;1.90;;;;;;;15.13;100.00;98818.86;108988;1259;73798;-65
2023/08/31 01:55:32;;;;;;;6.80;1.90;;;;;;;15.13;100.00;98825.50;109083;1259;59339;-63
2023/08/31 01:58:19;;;;;;;5.80;1.80;;;;;;;15.10;100.00;98823.58;109069;1257;60241;-63
2023/08/31 02:01:06;;;;;;;5.90;1.80;;;;;;;15.06;100.00;98825.08;109049;1259;74833;-64
2023/08/31 02:03:52;;;;;;;5.80;2.20;;;;;;;15.05;100.00;98822.55;109000;1260;67883;-66
2023/08/31 02:06:39;;;;;;;6.40;2.10;;;;;;;15.05;100.00;98819.30;109026;1263;73464;-64
2023/08/31 02:09:26;;;;;;;5.90;1.80;;;;;;;15.06;100.00;98821.34;109050;1257;58582;-64
2023/08/31 02:12:13;;;;;;;5.70;1.90;;;;;;;15.07;100.00;98819.45;109033;1260;61423;-64
2023/08/31 02:14:59;;;;;;;5.90;2.00;;;;;;;15.06;100.00;98817.65;108983;1259;73576;-63
2023/08/31 02:17:45;;;;;;;5.60;1.80;;;;;;;15.04;100.00;98818.45;108945;1259;67725;-63
2023/08/31 02:20:34;;;;;;;5.70;1.70;;;;;;;15.01;100.00;98817.08;109009;1259;72612;-64
2023/08/31 02:23:20;;;;;;;5.60;1.60;;;;;;;15.00;100.00;98813.19;108959;1258;59686;-65
2023/08/31 02:26:06;;;;;;;5.60;1.60;;;;;;;14.99;100.00;98813.78;109113;1257;61268;-64
2023/08/31 02:28:53;;;;;;;5.00;1.60;;;;;;;14.99;100.00;98813.76;109113;1257;73998;-66
2023/08/31 02:31:39;;;;;;;5.30;1.80;;;;;;;14.99;100.00;98813.92;109101;1257;66474;-63
2023/08/31 02:34:25;;;;;;;5.60;1.50;;;;;;;14.99;100.00;98812.55;109012;1257;73652;-64
2023/08/31 02:37:12;;;;;;;5.90;1.60;;;;;;;15.00;100.00;98814.79;109082;1257;59507;-63
2023/08/31 02:39:58;;;;;;;7.10;1.40;;;;;;;15.00;100.00;98814.25;108997;1257;61283;-64
2023/08/31 02:42:44;;;;;;;5.60;1.60;;;;;;;14.99;100.00;98814.52;109089;1257;74785;-64
2023/08/31 02:45:35;;;;;;;4.70;1.10;;;;;;;14.97;100.00;98814.20;109060;1257;68057;-65
2023/08/31 02:48:22;;;;;;;4.50;1.30;;;;;;;14.88;100.00;98805.39;108989;1257;72637;-64
2023/08/31 02:51:09;;;;;;;4.10;0.90;;;;;;;14.93;100.00;98821.06;109080;1257;60440;-65
2023/08/31 02:53:55;;;;;;;4.30;1.20;;;;;;;14.93;100.00;98823.23;109063;1257;60519;-64
2023/08/31 02:56:41;;;;;;;5.30;1.20;;;;;;;14.93;100.00;98823.20;109057;1257;73759;-64
2023/08/31 02:59:27;;;;;;;5.00;1.30;;;;;;;14.94;100.00;98820.41;109043;1257;67733;-64
2023/08/31 03:02:14;;;;;;;4.40;1.10;;;;;;;14.94;100.00;98827.41;109092;1257;73675;-65
2023/08/31 03:05:01;;;;;;;4.10;0.90;;;;;;;14.92;100.00;98831.38;108947;1257;60404;-65
2023/08/31 03:07:48;;;;;;;4.60;0.90;;;;;;;14.90;100.00;98835.70;109134;1257;58709;-65
2023/08/31 03:10:35;;;;;;;4.00;1.00;;;;;;;14.87;100.00;98831.54;109101;1257;73681;-65
2023/08/31 03:13:21;;;;;;;3.70;0.80;;;;;;;14.83;100.00;98830.06;109084;1257;66452;-64
2023/08/31 03:16:08;;;;;;;3.40;0.90;;;;;;;14.81;100.00;98836.30;109085;1257;73494;-63
2023/08/31 03:18:54;;;;;;;4.40;0.90;;;;;;;14.80;100.00;98837.88;109026;1257;59357;-64
2023/08/31 03:21:41;;;;;;;4.70;0.90;;;;;;;14.79;100.00;98837.89;109135;1257;61160;-65
2023/08/31 03:24:27;;;;;;;4.30;1.00;;;;;;;14.75;100.00;98838.60;109023;1257;73531;-64
2023/08/31 03:27:19;;;;;;;3.70;1.00;;;;;;;14.73;100.00;98837.31;109042;1257;67232;-65
2023/08/31 03:30:06;;;;;;;4.50;1.10;;;;;;;14.69;100.00;98834.16;109077;1257;72772;-65
2023/08/31 03:32:52;;;;;;;5.00;1.10;;;;;;;14.63;100.00;98837.30;109103;1257;58146;-65
2023/08/31 03:35:38;;;;;;;4.10;1.00;;;;;;;14.59;100.00;98847.37;109047;1257;60311;-64
2023/08/31 03:38:24;;;;;;;5.10;1.20;;;;;;;14.57;100.00;98849.08;109117;1257;73760;-64
2023/08/31 03:41:12;;;;;;;5.90;0.90;;;;;;;14.55;100.00;98852.50;109103;1257;67809;-64
2023/08/31 03:43:58;;;;;;;6.00;1.40;;;;;;;14.54;100.00;98849.59;109026;1257;72766;-64
2023/08/31 03:46:45;;;;;;;5.90;1.50;;;;;;;14.56;100.00;98844.23;109101;1257;59451;-64
2023/08/31 03:49:33;;;;;;;5.50;1.20;;;;;;;14.56;100.00;98844.58;109080;1257;60563;-63
2023/08/31 03:52:19;;;;;;;5.50;1.40;;;;;;;14.55;100.00;98845.39;109112;1257;73558;-64
2023/08/31 03:55:07;;;;;;;5.50;1.30;;;;;;;14.57;100.00;98844.06;109054;1258;66361;-64
2023/08/31 03:57:54;;;;;;;6.80;1.20;;;;;;;14.57;100.00;98843.16;108924;1259;73722;-64
2023/08/31 04:00:41;;;;;;;4.90;1.50;;;;;;;14.59;100.00;98852.41;108968;1259;59353;-64
2023/08/31 04:03:28;;;;;;;5.10;1.40;;;;;;;14.58;100.00;98851.23;109057;1258;61396;-65
2023/08/31 04:06:14;;;;;;;7.80;1.70;;;;;;;14.61;100.00;98853.91;109051;1258;73805;-64
2023/08/31 04:09:01;;;;;;;7.70;1.70;;;;;;;14.61;100.00;98853.01;109031;1259;68927;-64
2023/08/31 04:11:47;;;;;;;5.50;1.60;;;;;;;14.62;100.00;98852.08;109005;1258;73776;-64
2023/08/31 04:14:33;;;;;;;5.20;1.60;;;;;;;14.62;100.00;98852.42;108983;1258;60536;-65
2023/08/31 04:17:19;;;;;;;5.90;1.80;;;;;;;14.61;100.00;98854.63;108987;1257;61220;-65
2023/08/31 04:20:07;;;;;;;5.20;1.50;;;;;;;14.60;100.00;98857.59;108972;1257;73907;-68
2023/08/31 04:22:54;;;;;;;6.00;1.70;;;;;;;14.61;100.00;98858.43;109076;1257;67697;-64
2023/08/31 04:25:40;;;;;;;5.80;1.80;;;;;;;14.61;100.00;98859.14;109039;1257;72609;-65
2023/08/31 04:28:28;;;;;;;6.60;1.70;;;;;;;14.63;100.00;98867.83;109009;1257;58639;-65
2023/08/31 04:31:14;;;;;;;5.40;1.60;;;;;;;14.63;100.00;98867.63;109094;1257;60375;-67
2023/08/31 04:34:00;;;;;;;5.90;1.90;;;;;;;14.63;100.00;98864.95;109072;1257;73791;-67
2023/08/31 04:36:46;;;;;;;6.40;2.00;;;;;;;14.65;100.00;98862.98;108924;1258;67667;-65
2023/08/31 04:39:32;;;;;;;6.20;1.90;;;;;;;14.69;100.00;98869.34;109085;1257;73739;-65
2023/08/31 04:42:18;;;;;;;5.60;1.90;;;;;;;14.70;100.00;98867.79;109032;1257;59482;-68
2023/08/31 04:45:06;;;;;;;6.10;1.70;;;;;;;14.71;100.00;98868.63;109058;1257;58090;-68
2023/08/31 04:47:52;;;;;;;7.30;2.40;;;;;;;14.69;100.00;98866.62;108974;1257;74623;-65
2023/08/31 04:50:38;;;;;;;7.40;2.30;;;;;;;14.67;100.00;98868.17;108926;1258;68871;-68
2023/08/31 04:53:25;;;;;;;5.80;2.10;;;;;;;14.65;100.00;98869.75;108972;1258;73682;-65
2023/08/31 04:56:11;;;;;;;7.40;2.20;;;;;;;14.63;100.00;98872.32;108955;1258;60526;-66
2023/08/31 04:58:59;;;;;;;6.20;2.10;;;;;;;14.64;100.00;98874.89;109046;1258;60437;-68
2023/08/31 05:01:45;;;;;;;5.40;2.00;;;;;;;14.63;100.00;98871.78;108926;1259;73930;-68
2023/08/31 05:04:31;;;;;;;5.80;2.00;;;;;;;14.67;100.00;98871.48;109013;1258;68715;-65
2023/08/31 05:07:18;;;;;;;7.20;2.10;;;;;;;14.71;100.00;98866.79;108998;1258;73701;-69
2023/08/31 05:10:06;;;;;;;9.00;2.00;;;;;;;14.76;100.00;98861.04;108984;1258;59402;-66
2023/08/31 05:12:52;;;;;;;5.60;1.70;;;;;;;14.80;100.00;98862.71;109006;1259;58833;-69
2023/08/31 05:15:38;;;;;;;6.00;1.90;;;;;;;14.84;100.00;98861.27;108963;1260;73703;-65
2023/08/31 05:18:24;;;;;;;6.40;2.00;;;;;;;14.88;100.00;98867.53;108974;1258;66607;-68
2023/08/31 05:21:10;;;;;;;5.60;1.90;;;;;;;14.94;100.00;98864.11;109013;1258;71194;-65
2023/08/31 05:23:56;;;;;;;6.00;1.90;;;;;;;15.01;100.00;98863.56;108966;1258;58157;-68
2023/08/31 05:26:42;;;;;;;7.00;1.90;;;;;;;15.07;100.00;98866.98;108996;1258;60405;-67
2023/08/31 05:29:29;;;;;;;5.70;1.50;;;;;;;15.14;100.00;98862.71;109031;1258;74458;-67
2023/08/31 05:32:18;;;;;;;5.90;2.00;;;;;;;15.23;100.00;98863.31;108960;1258;69319;-65
2023/08/31 05:35:05;;;;;;;7.70;1.60;;;;;;;15.34;100.00;98861.48;108971;1258;72602;-65
2023/08/31 05:37:51;;;;;;;8.30;2.70;;;;;;;15.49;100.00;98863.59;108982;1258;60655;-66
2023/08/31 05:40:38;;;;;;;6.30;2.10;;;;;;;15.70;100.00;98865.05;109034;1258;61407;-66
2023/08/31 05:43:24;;;;;;;6.90;1.90;;;;;;;15.97;100.00;98859.02;109005;1258;73638;-66
2023/08/31 05:46:11;;;;;;;6.80;2.10;;;;;;;16.26;100.00;98861.25;109023;1258;68917;-66
2023/08/31 05:48:57;;;;;;;5.70;2.00;;;;;;;16.51;99.10;98858.20;108960;1258;72627;-70
2023/08/31 05:51:43;;;;;;;6.70;2.20;;;;;;;16.64;97.91;98862.19;108948;1258;58625;-66
2023/08/31 05:54:29;;;;;;;6.80;2.60;;;;;;;16.76;96.64;98867.55;108996;1258;60037;-68
2023/08/31 05:57:19;;;;;;;6.90;2.20;;;;;;;16.77;96.23;98871.50;108986;1258;75153;-67
2023/08/31 06:00:09;;;;;;;6.00;2.20;;;;;;;16.78;95.81;98879.64;108950;1258;66996;-67
2023/08/31 06:03:00;;;;;;;8.00;2.70;;;;;;;16.76;95.11;98879.98;108953;1258;72589;-69
2023/08/31 06:05:48;;;;;;;6.30;2.40;;;;;;;16.73;94.76;98886.52;108978;1258;58851;-67
2023/08/31 06:08:38;;;;;;;6.50;2.20;;;;;;;16.69;94.66;98894.98;108997;1258;60192;-69
2023/08/31 06:11:26;;;;;;;6.00;2.40;;;;;;;16.66;94.22;98892.39;109065;1257;74831;-65
2023/08/31 06:14:12;;;;;;;7.30;2.50;;;;;;;16.64;94.16;98888.73;109005;1258;66213;-71
2023/08/31 06:16:59;;;;;;;6.30;2.20;;;;;;;16.70;94.17;98890.48;108979;1258;70753;-69
2023/08/31 06:19:45;;;;;;;6.30;2.30;;;;;;;16.79;93.98;98890.07;108980;1258;60546;-67
2023/08/31 06:22:31;;;;;;;7.50;2.20;;;;;;;16.88;93.67;98887.38;109025;1258;60064;-72
2023/08/31 06:25:18;;;;;;;6.40;2.50;;;;;;;17.01;93.19;98887.66;109043;1257;74130;-66
2023/08/31 06:28:08;;;;;;;6.10;2.20;;;;;;;17.10;91.74;98884.41;109071;1257;68144;-66
2023/08/31 06:30:55;;;;;;;5.70;2.10;;;;;;;17.20;91.27;98884.98;109100;1257;73508;-67
2023/08/31 06:33:41;;;;;;;8.00;2.40;;;;;;;17.31;91.20;98890.13;109031;1257;59475;-65
2023/08/31 06:36:27;;;;;;;6.20;1.90;;;;;;;17.37;89.60;98896.94;109125;1257;60502;-68
2023/08/31 06:39:15;;;;;;;6.40;2.20;;;;;;;17.42;89.40;98898.17;109129;1257;72590;-65
2023/08/31 06:42:03;;;;;;;6.60;2.20;;;;;;;17.49;88.51;98894.80;108903;1257;189392;-66
2023/08/31 06:44:49;;;;;;;6.10;1.90;;;;;;;17.80;89.13;98899.70;109046;1257;72734;-65
2023/08/31 06:47:35;;;;;;;7.10;1.90;;;;;;;18.87;85.93;98900.21;109055;1257;58199;-69
2023/08/31 06:50:22;;;;;;;5.80;1.60;;;;;;;19.43;82.72;98902.42;109120;1257;60225;-64
2023/08/31 06:53:08;;;;;;;6.60;1.70;;;;;;;19.94;79.51;98903.09;109091;1257;74904;-66
2023/08/31 06:55:54;;;;;;;6.70;1.70;;;;;;;20.33;75.80;98904.55;109100;1257;67609;-65
2023/08/31 06:58:40;;;;;;;6.20;1.70;;;;;;;20.30;75.33;98900.48;109082;1258;72890;-66
2023/08/31 07:01:29;;;;;;;6.20;1.90;;;;;;;20.18;75.19;98899.05;109048;1257;58301;-66
2023/08/31 07:04:16;;;;;;;7.20;1.90;;;;;;;20.10;75.70;98896.36;109112;1257;61227;-67
2023/08/31 07:07:02;;;;;;;8.80;1.70;;;;;;;20.01;75.21;98889.34;109042;1257;73800;-66
2023/08/31 07:09:49;;;;;;;6.70;2.70;;;;;;;19.92;75.70;98889.34;109023;1257;66813;-67
2023/08/31 07:12:36;;;;;;;7.60;1.90;;;;;;;19.87;75.66;98897.75;109059;1258;73522;-66
2023/08/31 07:15:22;;;;;;;6.60;1.90;;;;;;;19.87;75.59;98901.86;108988;1257;58260;-66
2023/08/31 07:18:08;;;;;;;6.30;1.70;;;;;;;19.92;75.64;98897.45;109115;1257;60172;-67
2023/08/31 07:20:55;;;;;;;6.40;1.80;;;;;;;19.99;75.68;98898.48;109101;1257;73721;-69
2023/08/31 07:23:41;;;;;;;5.80;1.60;;;;;;;20.00;74.66;98902.35;109017;1257;66836;-67
2023/08/31 07:26:28;;;;;;;6.20;1.50;;;;;;;20.04;74.66;98905.67;109061;1257;70128;-67
2023/08/31 07:29:15;;;;;;;4.90;1.50;;;;;;;20.15;73.91;98905.03;109059;1257;58420;-66
2023/08/31 07:32:03;;;;;;;5.20;1.30;;;;;;;20.47;73.00;98900.27;109075;1257;59108;-66
2023/08/31 07:34:49;;;;;;;5.10;1.40;;;;;;;20.78;72.04;98897.58;109113;1257;74856;-65
2023/08/31 07:37:37;;;;;;;6.00;1.50;;;;;;;21.02;70.07;98903.01;109099;1257;66736;-69
2023/08/31 07:40:23;;;;;;;7.10;1.50;;;;;;;21.21;70.33;98905.11;108998;1257;73786;-68
2023/08/31 07:43:10;;;;;;;6.90;1.60;;;;;;;21.58;67.98;98908.56;109056;1257;58132;-66
2023/08/31 07:46:04;;;;;;;5.70;1.40;;;;;;;21.79;67.06;98905.23;109093;1257;60164;-64
2023/08/31 07:48:51;;;;;;;5.50;1.60;;;;;;;22.01;66.31;98906.10;108999;1258;74831;-66
2023/08/31 07:51:37;;;;;;;6.50;1.60;;;;;;;22.01;65.91;98905.61;109011;1258;68717;-67
2023/08/31 07:54:24;;;;;;;6.90;1.60;;;;;;;21.71;65.97;98911.02;108934;1258;72661;-65
2023/08/31 07:57:11;;;;;;;5.50;1.60;;;;;;;21.38;66.10;98911.00;108980;1258;58367;-66
2023/08/31 08:00:00;;;;;;;6.60;1.70;;;;;;;21.08;67.20;98916.13;108998;1258;60180;-65
2023/08/31 08:02:58;;;;;;;6.00;1.80;;;;;;;20.80;68.07;98913.75;109040;1258;72679;-65
2023/08/31 08:05:44;;;;;;;5.90;1.70;;;;;;;20.58;68.81;98916.75;109031;1258;67959;-65
2023/08/31 08:08:31;;;;;;;6.50;1.60;;;;;;;20.39;69.80;98924.95;108963;1258;73551;-67
2023/08/31 08:11:17;;;;;;;5.20;1.70;;;;;;;20.25;70.67;98924.34;108996;1258;58129;-67
2023/08/31 08:14:03;;;;;;;5.80;1.80;;;;;;;20.24;71.08;98925.02;109041;1258;61538;-68
2023/08/31 08:16:49;;;;;;;6.30;1.60;;;;;;;20.27;71.27;98929.83;109007;1258;74609;-69
2023/08/31 08:19:36;;;;;;;6.40;1.60;;;;;;;20.42;71.08;98930.51;109069;1257;67802;-66
2023/08/31 08:22:24;;;;;;;5.90;2.00;;;;;;;20.58;69.93;98936.05;109117;1257;72787;-67
2023/08/31 08:25:11;;;;;;;5.90;1.70;;;;;;;20.84;70.00;98930.21;109057;1257;58389;-65
2023/08/31 08:27:57;;;;;;;6.10;1.70;;;;;;;21.00;68.15;98927.39;109062;1257;61177;-66
2023/08/31 08:30:44;;;;;;;6.10;1.60;;;;;;;21.12;67.74;98925.17;109040;1257;73650;-63
2023/08/31 08:33:31;;;;;;;5.80;1.60;;;;;;;21.43;66.12;98921.25;109100;1257;68676;-68
2023/08/31 08:36:17;;;;;;;5.30;1.50;;;;;;;21.66;64.80;98925.54;108974;1257;72352;-65
2023/08/31 08:39:06;;;;;;;6.70;1.60;;;;;;;21.66;63.94;98928.83;109021;1257;58249;-66
2023/08/31 08:41:54;;;;;;;6.50;1.50;;;;;;;21.76;64.16;98931.67;109072;1258;58208;-67
2023/08/31 08:44:41;;;;;;;5.60;1.50;;;;;;;22.39;62.56;98937.59;109100;1257;74710;-66
2023/08/31 08:47:28;;;;;;;5.90;1.50;;;;;;;23.02;60.49;98930.48;109135;1257;67765;-64
2023/08/31 08:50:16;;;;;;;5.80;1.50;;;;;;;23.23;59.24;98937.29;109065;1257;73709;-65
2023/08/31 08:53:04;;;;;;;6.60;1.50;;;;;;;23.09;59.45;98936.62;109046;1257;58783;-65
2023/08/31 08:55:50;;;;;;;7.90;1.40;;;;;;;22.88;60.00;98941.29;109040;1258;61355;-64
2023/08/31 08:58:38;;;;;;;5.80;1.60;;;;;;;22.63;60.85;98949.55;108931;1258;73711;-68
2023/08/31 09:01:25;;;;;;;6.60;1.90;;;;;;;22.31;61.49;98944.77;108999;1258;69066;-65
2023/08/31 09:04:12;;;;;;;5.50;1.30;;;;;;;22.08;62.63;98945.05;108982;1257;72560;-68
2023/08/31 09:06:58;;;;;;;5.90;1.60;;;;;;;21.91;63.03;98948.94;109097;1257;58261;-65
2023/08/31 09:09:53;;;;;;;5.90;1.60;;;;;;;22.06;62.33;98949.73;109142;1257;60348;-64
2023/08/31 09:12:39;;;;;;;5.60;1.60;;;;;;;22.02;62.58;98957.39;109031;1257;73596;-65
2023/08/31 09:15:25;;;;;;;5.70;1.60;;;;;;;22.09;62.36;98962.11;109159;1257;68017;-64
2023/08/31 09:18:32;;;;;;;6.10;1.70;;;;;;;22.19;61.25;98963.08;109122;1257;72529;-65
2023/08/31 09:21:20;;;;;;;5.50;1.40;;;;;;;22.19;60.80;98962.86;109052;1258;58303;-65
2023/08/31 09:24:10;;;;;;;6.10;1.60;;;;;;;22.23;61.42;98967.46;109098;1257;60870;-67
2023/08/31 09:26:58;;;;;;;5.80;1.70;;;;;;;22.41;59.75;98964.92;108970;1258;73917;-64
2023/08/31 09:29:46;;;;;;;5.10;1.30;;;;;;;22.57;57.15;98967.38;109053;1258;68823;-65
2023/08/31 09:32:35;;;;;;;5.90;1.50;;;;;;;22.42;56.88;98966.14;109056;1258;72652;-66
2023/08/31 09:35:22;;;;;;;6.10;1.50;;;;;;;22.54;56.77;98970.08;108962;1260;58211;-65
2023/08/31 09:38:10;;;;;;;5.20;1.50;;;;;;;22.62;57.33;98970.34;108956;1259;60110;-65
2023/08/31 09:41:06;;;;;;;7.10;1.60;;;;;;;22.70;57.40;98971.88;109068;1257;73829;-67
2023/08/31 09:43:53;;;;;;;5.60;1.50;;;;;;;22.69;57.09;98981.39;109015;1257;67834;-67
2023/08/31 09:46:39;;;;;;;5.00;1.30;;;;;;;22.36;55.91;98983.68;109020;1257;72846;-67
2023/08/31 09:49:27;;;;;;;7.30;1.50;;;;;;;22.34;56.38;98981.05;109038;1257;58375;-65
2023/08/31 09:52:14;;;;;;;4.90;1.30;;;;;;;22.45;55.37;98980.17;109054;1257;60983;-67
2023/08/31 09:55:03;;;;;;;5.80;1.40;;;;;;;22.57;55.79;98979.98;109112;1257;73786;-70
2023/08/31 09:57:52;;;;;;;6.80;1.70;;;;;;;22.80;54.82;98976.02;109058;1257;68965;-68
2023/08/31 10:00:59;;;;;;;6.70;1.40;;;;;;;23.05;53.28;98974.98;109077;1257;72600;-66
2023/08/31 10:03:46;;;;;;;6.10;1.60;;;;;;;23.26;52.95;98976.62;109021;1257;59057;-65
2023/08/31 10:06:33;;;;;;;6.40;1.40;;;;;;;23.43;53.56;98977.41;109080;1258;61426;-65
2023/08/31 10:09:20;;;;;;;5.50;1.70;;;;;;;23.42;53.24;98976.04;109013;1257;73800;-67
2023/08/31 10:12:08;;;;;;;5.30;1.40;;;;;;;23.31;53.00;98970.55;109061;1257;67107;-66
2023/08/31 10:14:56;;;;;;;5.30;1.40;;;;;;;23.17;53.33;98964.91;109062;1257;73326;-65
2023/08/31 10:17:42;;;;;;;5.80;1.80;;;;;;;23.18;53.87;98965.73;109093;1257;58761;-65
2023/08/31 10:20:34;;;;;;;7.60;1.80;;;;;;;23.35;53.60;98963.69;109068;1257;59597;-66
2023/08/31 10:23:20;;;;;;;6.00;1.40;;;;;;;23.45;53.64;98965.34;108986;1257;74624;-65
2023/08/31 10:26:07;;;;;;;5.10;1.40;;;;;;;23.46;52.90;98969.55;108965;1258;66569;-65
2023/08/31 10:28:54;;;;;;;5.60;1.40;;;;;;;23.38;52.18;98964.98;108963;1258;71428;-66
2023/08/31 10:31:41;;;;;;;5.20;1.30;;;;;;;23.19;53.02;98960.67;108930;1257;58990;-65
2023/08/31 10:34:38;;;;;;;5.80;1.20;;;;;;;23.33;52.78;98967.46;109123;1257;61397;-65
2023/08/31 10:37:27;;;;;;;5.30;1.40;;;;;;;23.32;51.61;98958.09;109047;1257;72304;-67
2023/08/31 10:40:14;;;;;;;6.00;1.60;;;;;;;23.68;51.09;98963.05;109068;1257;66802;-67
2023/08/31 10:43:16;;;;;;;5.30;1.40;;;;;;;24.03;50.27;98957.02;109005;1257;72338;-67
2023/08/31 10:46:15;;;;;;;5.20;1.60;;;;;;;24.75;49.27;98959.48;109008;1257;58886;-66
2023/08/31 10:49:15;;;;;;;6.50;1.50;;;;;;;25.49;47.11;98954.41;109000;1258;60275;-66
2023/08/31 10:52:18;;;;;;;5.30;1.20;;;;;;;25.71;46.58;98949.20;108992;1258;74778;-66
2023/08/31 10:55:26;;;;;;;5.90;1.70;;;;;;;25.67;45.71;98940.46;109017;1258;66660;-66
2023/08/31 10:58:12;;;;;;;5.00;1.20;;;;;;;25.61;45.40;98941.83;109002;1258;71206;-66
2023/08/31 11:00:58;;;;;;;4.90;1.20;;;;;;;25.25;44.93;98945.17;109005;1258;58341;-67
2023/08/31 11:03:58;;;;;;;7.00;1.30;;;;;;;25.09;46.38;98944.91;109014;1259;61063;-71
2023/08/31 11:06:45;;;;;;;5.70;1.50;;;;;;;25.01;46.46;98941.10;109001;1258;74659;-67
2023/08/31 11:09:31;;;;;;;5.40;1.30;;;;;;;25.00;47.17;98938.68;109010;1258;69005;-66
2023/08/31 11:12:22;;;;;;;6.40;1.30;;;;;;;24.82;47.17;98937.63;109032;1258;72794;-65
2023/08/31 11:15:12;;;;;;;6.40;1.50;;;;;;;24.67;47.03;98933.53;109017;1258;58178;-69
2023/08/31 11:17:58;;;;;;;6.20;1.40;;;;;;;24.25;47.16;98927.21;109016;1258;60062;-65
2023/08/31 11:20:47;;;;;;;5.70;1.60;;;;;;;23.68;48.16;98928.46;108927;1258;72280;-67
2023/08/31 11:23:35;;;;;;;6.40;1.50;;;;;;;23.40;50.00;98928.46;109020;1258;67979;-69
2023/08/31 11:26:21;;;;;;;5.10;1.30;;;;;;;23.27;51.10;98926.85;108974;1258;72640;-66
2023/08/31 11:29:08;;;;;;;6.80;1.80;;;;;;;23.23;50.93;98923.44;108918;1259;58301;-67
2023/08/31 11:31:58;;;;;;;5.10;1.40;;;;;;;23.20;51.33;98921.69;109019;1258;58912;-65
2023/08/31 11:34:45;;;;;;;5.60;1.70;;;;;;;23.19;52.22;98920.45;109064;1258;73768;-66
2023/08/31 11:37:31;;;;;;;7.20;2.40;;;;;;;23.18;51.74;98923.95;109034;1259;67574;-70
2023/08/31 11:40:18;;;;;;;6.70;1.70;;;;;;;23.18;51.62;98929.55;108943;1258;73570;-67
2023/08/31 11:43:06;;;;;;;5.60;1.70;;;;;;;23.22;52.04;98931.92;108977;1258;58126;-67
2023/08/31 11:45:53;;;;;;;7.00;1.40;;;;;;;23.20;52.02;98933.12;108944;1259;60236;-69
2023/08/31 11:48:40;;;;;;;6.10;1.50;;;;;;;23.27;51.42;98930.77;109020;1258;74012;-71
2023/08/31 11:51:29;;;;;;;6.60;1.60;;;;;;;23.44;51.89;98935.63;109039;1258;67880;-68
2023/08/31 11:54:17;;;;;;;5.60;1.50;;;;;;;23.54;50.77;98933.42;108989;1258;72598;-67
2023/08/31 11:57:07;;;;;;;5.70;1.60;;;;;;;23.43;50.35;98932.55;108960;1258;58293;-68
2023/08/31 11:59:53;;;;;;;6.10;1.70;;;;;;;23.31;48.63;98930.99;109017;1261;59221;-68
2023/08/31 12:02:39;;;;;;;7.20;1.50;;;;;;;22.97;49.17;98929.55;109063;1257;73814;-64
2023/08/31 12:05:30;;;;;;;7.80;2.80;;;;;;;22.96;49.13;98929.13;109096;1257;67241;-68
2023/08/31 12:08:16;;;;;;;7.20;1.90;;;;;;;23.10;49.25;98924.15;109093;1258;74012;-68
2023/08/31 12:11:02;;;;;;;5.80;1.70;;;;;;;23.22;48.95;98919.73;109060;1257;58024;-67
2023/08/31 12:13:50;;;;;;;5.70;1.80;;;;;;;23.33;48.45;98921.38;108936;1258;60244;-66
2023/08/31 12:16:37;;;;;;;5.90;1.70;;;;;;;23.52;47.73;98917.67;109104;1257;73691;-68
2023/08/31 12:19:28;;;;;;;6.30;1.80;;;;;;;23.81;47.21;98914.35;109073;1257;67780;-67
2023/08/31 12:22:14;;;;;;;6.60;1.90;;;;;;;24.10;45.79;98908.48;109036;1259;72717;-67
2023/08/31 12:25:01;;;;;;;5.60;1.50;;;;;;;24.25;45.49;98908.18;109099;1257;58220;-68
2023/08/31 12:27:47;;;;;;;6.30;1.80;;;;;;;24.21;44.97;98915.38;109072;1259;59036;-65
2023/08/31 12:30:33;;;;;;;5.90;1.60;;;;;;;24.05;45.33;98918.48;109087;1260;71451;-69
2023/08/31 12:33:21;;;;;;;5.40;1.50;;;;;;;23.66;45.87;98918.63;109087;1258;68770;-66
2023/08/31 12:36:08;;;;;;;6.90;1.80;;;;;;;23.10;46.90;98919.07;109018;1258;72569;-67
2023/08/31 12:38:54;;;;;;;6.30;2.10;;;;;;;22.71;47.44;98922.56;109004;1258;58133;-66
2023/08/31 12:41:41;;;;;;;7.10;2.00;;;;;;;22.47;48.11;98926.52;109009;1258;60185;-65
2023/08/31 12:44:27;;;;;;;6.00;1.90;;;;;;;22.33;49.28;98928.94;109026;1258;74046;-64
2023/08/31 12:47:13;;;;;;;6.20;2.00;;;;;;;22.11;50.71;98938.55;109016;1259;66530;-68
2023/08/31 12:49:59;;;;;;;5.40;1.70;;;;;;;21.70;48.85;98943.92;108988;1258;74158;-65
2023/08/31 12:52:46;;;;;;;6.10;1.70;;;;;;;21.30;49.00;98946.47;108991;1258;59058;-68
2023/08/31 12:55:32;;;;;;;6.30;1.70;;;;;;;20.90;50.30;98952.39;109000;1259;58907;-67
2023/08/31 12:58:18;;;;;;;6.10;1.80;;;;;;;20.48;51.43;98955.60;109037;1258;73630;-66